createdAt,value
2022-10-07T00:02:34.591Z,65.53
2022-10-07T00:07:36.484Z,65.70
2022-10-07T00:12:38.430Z,65.68
2022-10-07T00:17:40.279Z,65.58
2022-10-07T00:22:42.064Z,65.40
2022-10-07T00:27:44.036Z,65.46
2022-10-07T00:32:46.101Z,65.48
2022-10-07T00:37:48.087Z,65.64
2022-10-07T00:42:49.899Z,65.71
2022-10-07T00:47:52.075Z,65.66
2022-10-07T00:52:57.909Z,65.61
2022-10-07T00:58:03.150Z,65.82
2022-10-07T01:03:05.393Z,65.60
2022-10-07T01:08:07.921Z,65.80
2022-10-07T01:13:35.081Z,65.75
2022-10-07T01:18:53.944Z,65.71
2022-10-07T01:24:03.132Z,65.75
2022-10-07T01:29:29.761Z,65.65
2022-10-07T01:34:34.361Z,65.71
2022-10-07T01:39:43.026Z,65.69
2022-10-07T01:44:47.646Z,65.75
2022-10-07T01:49:49.548Z,65.80
2022-10-07T01:55:11.317Z,65.85
2022-10-07T02:00:14.749Z,66.02
2022-10-07T02:05:39.094Z,65.95
2022-10-07T02:10:43.057Z,65.94
2022-10-07T02:16:00.760Z,66.11
2022-10-07T02:21:06.920Z,66.18
2022-10-07T02:26:13.475Z,66.00
2022-10-07T02:31:18.286Z,66.15
2022-10-07T02:36:29.064Z,66.20
2022-10-07T02:41:41.938Z,66.27
2022-10-07T02:47:01.011Z,66.40
2022-10-07T02:52:18.495Z,66.31
2022-10-07T02:57:24.806Z,66.31
2022-10-07T03:02:38.047Z,66.36
2022-10-07T03:07:42.017Z,66.42
2022-10-07T03:12:45.601Z,66.41
2022-10-07T03:17:48.421Z,66.46
2022-10-07T03:22:51.008Z,66.57
2022-10-07T03:27:54.445Z,66.72
2022-10-07T03:32:57.431Z,66.63
2022-10-07T03:37:59.357Z,66.64
2022-10-07T03:43:02.562Z,66.71
2022-10-07T03:48:04.679Z,66.79
2022-10-07T03:53:08.166Z,66.91
2022-10-07T03:58:10.394Z,67.01
2022-10-07T04:03:14.593Z,66.95
2022-10-07T04:08:18.072Z,67.10
2022-10-07T04:13:20.203Z,67.31
2022-10-07T04:18:22.582Z,67.30
2022-10-07T04:23:27.523Z,67.35
2022-10-07T04:28:30.299Z,67.53
2022-10-07T04:33:42.286Z,67.49
2022-10-07T04:38:53.103Z,67.60
2022-10-07T04:44:00.936Z,67.68
2022-10-07T04:49:07.473Z,67.59
2022-10-07T04:54:09.574Z,67.70
2022-10-07T04:59:23.593Z,67.71
2022-10-07T05:04:27.917Z,67.69
2022-10-07T05:09:31.446Z,67.77
2022-10-07T05:14:35.284Z,67.77
2022-10-07T05:19:37.997Z,67.67
2022-10-07T05:24:39.956Z,67.70
2022-10-07T05:29:42.012Z,67.82
2022-10-07T05:34:47.298Z,67.96
2022-10-07T05:39:49.506Z,67.90
2022-10-07T05:44:55.049Z,67.99
2022-10-07T05:49:58.942Z,68.01
2022-10-07T05:55:02.396Z,68.17
2022-10-07T06:00:06.348Z,68.37
2022-10-07T06:05:16.369Z,68.35
2022-10-07T06:10:37.520Z,68.62
2022-10-07T06:15:39.960Z,68.86
2022-10-07T06:20:42.698Z,69.33
2022-10-07T06:26:13.627Z,69.56
2022-10-07T06:31:25.405Z,69.53
2022-10-07T06:36:32.940Z,69.79
2022-10-07T06:41:35.842Z,70.00
2022-10-07T06:46:59.644Z,70.28
2022-10-07T06:52:01.641Z,70.56
2022-10-07T06:57:15.621Z,70.74
2022-10-07T07:02:30.008Z,71.00
2022-10-07T07:07:34.452Z,71.20
2022-10-07T07:12:37.015Z,71.31
2022-10-07T07:17:38.912Z,71.53
2022-10-07T07:22:41.882Z,71.87
2022-10-07T07:27:46.567Z,72.03
2022-10-07T07:32:50.123Z,72.14
2022-10-07T07:37:53.760Z,72.41
2022-10-07T07:42:56.238Z,72.53
2022-10-07T07:48:00.158Z,72.60
2022-10-07T07:53:04.532Z,72.53
2022-10-07T07:58:11.643Z,72.45
2022-10-07T08:03:15.771Z,72.48
2022-10-07T08:08:18.540Z,72.40
2022-10-07T08:13:20.882Z,72.20
2022-10-07T08:18:24.598Z,72.21
2022-10-07T08:23:27.222Z,72.20
2022-10-07T08:28:29.282Z,72.05
2022-10-07T08:33:39.670Z,71.79
2022-10-07T08:38:42.469Z,71.86
2022-10-07T08:43:50.453Z,71.86
2022-10-07T08:49:00.090Z,71.47
2022-10-07T08:54:02.729Z,71.19
2022-10-07T08:59:13.366Z,70.75
2022-10-07T09:04:36.701Z,70.39
2022-10-07T09:09:44.798Z,70.47
2022-10-07T09:14:48.988Z,70.16
2022-10-07T09:19:56.802Z,69.83
2022-10-07T09:25:17.036Z,69.73
2022-10-07T09:30:20.493Z,69.59
2022-10-07T09:35:25.801Z,69.27
2022-10-07T09:40:27.603Z,69.10
2022-10-07T09:45:33.436Z,68.79
2022-10-07T09:50:41.212Z,68.40
2022-10-07T09:55:45.303Z,68.31
2022-10-07T10:00:49.880Z,68.33
2022-10-07T10:06:01.642Z,67.95
2022-10-07T10:11:06.500Z,68.09
2022-10-07T10:16:34.460Z,67.71
2022-10-07T10:21:42.177Z,67.74
2022-10-07T10:26:46.563Z,68.18
2022-10-07T10:32:22.783Z,68.03
2022-10-07T10:37:46.302Z,68.39
2022-10-07T10:43:21.978Z,68.18
2022-10-07T10:48:29.307Z,68.16
2022-10-07T10:53:42.958Z,68.29
2022-10-07T10:59:34.789Z,67.99
2022-10-07T11:04:59.043Z,67.52
2022-10-07T11:10:18.271Z,66.83
2022-10-07T11:15:28.985Z,66.78
2022-10-07T11:20:38.832Z,66.69
2022-10-07T11:25:50.910Z,66.13
2022-10-07T11:31:05.649Z,66.01
2022-10-07T11:36:17.902Z,66.32
2022-10-07T11:41:32.401Z,66.23
2022-10-07T11:46:39.794Z,66.43
2022-10-07T11:52:43.556Z,66.10
2022-10-07T11:57:54.179Z,66.14
2022-10-07T12:03:18.903Z,66.02
2022-10-07T12:08:33.916Z,66.14
2022-10-07T12:13:38.455Z,65.81
2022-10-07T12:18:40.314Z,65.73
2022-10-07T12:23:44.204Z,65.90
2022-10-07T12:28:53.687Z,65.89
2022-10-07T12:34:09.273Z,65.70
2022-10-07T12:39:11.825Z,65.67
2022-10-07T12:44:32.119Z,65.35
2022-10-07T12:49:37.271Z,65.17
2022-10-07T12:54:47.701Z,64.50
2022-10-07T13:00:08.397Z,64.17
2022-10-07T13:05:37.574Z,64.45
2022-10-07T13:11:00.664Z,64.48
2022-10-07T13:16:14.587Z,64.38
2022-10-07T13:21:35.846Z,63.97
2022-10-07T13:26:43.655Z,64.00
2022-10-07T13:32:03.741Z,63.55
2022-10-07T13:37:29.714Z,63.61
2022-10-07T13:42:31.575Z,63.58
2022-10-07T13:47:34.022Z,63.84
2022-10-07T13:52:44.425Z,63.60
2022-10-07T13:57:46.960Z,63.62
2022-10-07T14:02:50.929Z,63.33
2022-10-07T14:08:11.350Z,63.26
2022-10-07T14:13:16.449Z,63.58
2022-10-07T14:18:18.596Z,63.63
2022-10-07T14:23:31.280Z,63.20
2022-10-07T14:28:35.709Z,63.15
2022-10-07T14:34:10.480Z,63.27
2022-10-07T14:39:32.827Z,63.49
2022-10-07T14:44:35.855Z,63.61
2022-10-07T14:49:37.827Z,63.60
2022-10-07T14:54:40.371Z,63.60
2022-10-07T14:59:42.328Z,63.20
2022-10-07T15:04:45.644Z,63.31
2022-10-07T15:09:48.568Z,63.07
2022-10-07T15:14:50.607Z,63.20
2022-10-07T15:19:53.132Z,63.41
2022-10-07T15:24:55.198Z,63.48
2022-10-07T15:29:57.099Z,63.15
2022-10-07T15:34:58.998Z,63.18
2022-10-07T15:40:01.155Z,63.30
2022-10-07T15:45:03.020Z,63.68
2022-10-07T15:50:06.029Z,63.85
2022-10-07T15:55:09.207Z,64.45
2022-10-07T16:00:11.727Z,64.36
2022-10-07T16:05:16.439Z,64.60
2022-10-07T16:10:18.261Z,64.86
2022-10-07T16:15:20.216Z,65.24
2022-10-07T16:20:22.032Z,65.61
2022-10-07T16:25:23.810Z,65.55
2022-10-07T16:30:51.648Z,65.86
2022-10-07T16:35:53.431Z,66.15
2022-10-07T16:40:55.415Z,66.44
2022-10-07T16:46:02.208Z,66.38
2022-10-07T16:51:04.407Z,66.61
2022-10-07T16:56:07.432Z,66.76
2022-10-07T17:01:12.739Z,66.89
2022-10-07T17:06:17.955Z,66.89
2022-10-07T17:11:30.425Z,67.13
2022-10-07T17:16:36.728Z,67.18
2022-10-07T17:21:40.887Z,67.01
2022-10-07T17:26:44.123Z,67.53
2022-10-07T17:31:50.292Z,67.52
2022-10-07T17:36:52.510Z,67.42
2022-10-07T17:41:54.352Z,67.45
2022-10-07T17:46:58.963Z,67.55
2022-10-07T17:52:00.880Z,67.67
2022-10-07T17:57:03.300Z,67.73
2022-10-07T18:02:05.659Z,67.68
2022-10-07T18:07:07.487Z,68.00
2022-10-07T18:12:27.748Z,68.09
2022-10-07T18:17:29.831Z,68.10
2022-10-07T18:22:34.418Z,68.03
2022-10-07T18:27:36.199Z,68.22
2022-10-07T18:32:38.060Z,68.11
2022-10-07T18:37:39.994Z,68.34
2022-10-07T18:42:42.111Z,68.39
2022-10-07T18:47:44.589Z,68.25
2022-10-07T18:52:46.934Z,68.51
2022-10-07T18:57:49.431Z,68.22
2022-10-07T19:02:51.617Z,68.39
2022-10-07T19:07:53.503Z,68.37
2022-10-07T19:13:17.218Z,68.67
2022-10-07T19:18:22.899Z,68.54
2022-10-07T19:23:28.946Z,68.38
2022-10-07T19:28:31.092Z,68.53
2022-10-07T19:33:34.281Z,68.60
2022-10-07T19:38:40.817Z,68.65
2022-10-07T19:43:43.892Z,68.86
2022-10-07T19:48:45.925Z,68.81
2022-10-07T19:53:48.064Z,68.90
2022-10-07T19:59:01.043Z,68.79
2022-10-07T20:04:04.393Z,68.72
2022-10-07T20:09:08.701Z,68.85
2022-10-07T20:14:10.933Z,68.99
2022-10-07T20:19:16.452Z,68.99
2022-10-07T20:24:18.478Z,68.94
2022-10-07T20:29:25.275Z,68.89
2022-10-07T20:34:27.709Z,68.83
2022-10-07T20:39:48.114Z,68.80
2022-10-07T20:44:52.240Z,68.79
2022-10-07T20:49:56.716Z,68.79
2022-10-07T20:54:58.840Z,68.80
2022-10-07T21:00:00.851Z,68.99
2022-10-07T21:05:02.658Z,68.78
2022-10-07T21:10:05.187Z,68.66
2022-10-07T21:15:07.573Z,68.75
2022-10-07T21:20:09.897Z,68.74
2022-10-07T21:25:11.992Z,68.78
2022-10-07T21:30:13.922Z,68.70
2022-10-07T21:35:15.652Z,68.71
2022-10-07T21:40:17.517Z,68.67
2022-10-07T21:45:19.382Z,68.50
2022-10-07T21:50:21.371Z,68.50
2022-10-07T21:55:23.532Z,68.40
2022-10-07T22:00:26.213Z,68.55
2022-10-07T22:05:27.987Z,68.50
2022-10-07T22:10:29.793Z,68.62
2022-10-07T22:15:36.866Z,68.58
2022-10-07T22:20:38.991Z,68.35
2022-10-07T22:25:40.778Z,68.62
2022-10-07T22:30:43.009Z,68.56
2022-10-07T22:35:44.854Z,68.54
2022-10-07T22:40:46.707Z,68.64
2022-10-07T22:45:57.136Z,68.60
2022-10-07T22:51:10.342Z,68.71
2022-10-07T22:56:14.958Z,68.56
2022-10-07T23:01:17.896Z,68.58
2022-10-07T23:06:19.921Z,68.64
2022-10-07T23:11:24.270Z,68.75
2022-10-07T23:16:29.691Z,68.57
2022-10-07T23:21:34.755Z,68.74
2022-10-07T23:26:37.338Z,68.64
2022-10-07T23:31:39.562Z,68.58
2022-10-07T23:36:41.608Z,68.58
2022-10-07T23:41:43.425Z,68.43
2022-10-07T23:46:45.373Z,68.43
2022-10-07T23:51:47.528Z,68.53
2022-10-07T23:56:49.561Z,68.52
